Time;durP1;ratioP1;P1;durP2;ratioP2;P2;SDS_P1;SDS_P2;PMS_P1;PMS_P2;Temp;Humidity;BMP_temperature;BMP_pressure;BME280_temperature;BME280_humidity;BME280_pressure;Samples;Min_cycle;Max_cycle;Signal;HPM_P1;HPM_P2
2022/09/18 00:01:18;;;;;;;3.33;1.15;;;332.90;2329.60;;;;;;5034828;28;20031;-83
2022/09/18 00:03:46;;;;;;;4.30;1.48;;;332.80;2329.60;;;;;;5035798;28;20029;-84
2022/09/18 00:06:15;;;;;;;3.83;1.88;;;332.80;2329.60;;;;;;5034653;28;20387;-83
2022/09/18 00:08:44;;;;;;;4.30;2.00;;;332.80;2329.60;;;;;;5035612;28;20379;-84
2022/09/18 00:11:12;;;;;;;3.60;1.20;;;333.00;2329.60;;;;;;5034053;28;20053;-83
2022/09/18 00:13:39;;;;;;;2.17;1.08;;;332.90;2329.60;;;;;;5034544;28;20026;-85
2022/09/18 00:16:08;;;;;;;1.67;0.95;;;333.00;2329.60;;;;;;5034541;28;20037;-84
2022/09/18 00:18:35;;;;;;;2.72;1.20;;;333.00;2329.60;;;;;;5034329;28;20061;-85
2022/09/18 00:21:09;;;;;;;2.28;1.13;;;333.20;2329.60;;;;;;5034434;28;20124;-83
2022/09/18 00:23:35;;;;;;;2.28;1.20;;;333.10;2329.60;;;;;;5034287;28;20033;-84
2022/09/18 00:26:02;;;;;;;2.05;0.88;;;333.10;2329.60;;;;;;5032910;28;20100;-84
2022/09/18 00:28:28;;;;;;;1.70;1.00;;;332.90;2329.60;;;;;;5033809;28;20060;-83
2022/09/18 00:30:54;;;;;;;2.47;1.20;;;333.00;2329.60;;;;;;5032109;28;20052;-84
2022/09/18 00:33:20;;;;;;;3.33;1.10;;;332.90;2329.60;;;;;;5032604;28;20489;-84
2022/09/18 00:35:46;;;;;;;2.67;1.08;;;333.00;2329.60;;;;;;5014161;28;20193;-84
2022/09/18 00:38:11;;;;;;;3.72;1.33;;;332.90;2329.60;;;;;;5012482;28;20030;-84
2022/09/18 00:40:38;;;;;;;2.40;1.20;;;332.80;2329.60;;;;;;5013762;28;20032;-83
2022/09/18 00:43:18;;;;;;;2.00;1.00;;;332.80;2329.60;;;;;;5047147;28;20104;-84
2022/09/18 00:45:50;;;;;;;6.72;1.10;;;308.10;2304.00;;;;;;5023235;28;20036;-83
2022/09/18 00:48:17;;;;;;;1.60;0.98;;;308.10;2304.00;;;;;;5030416;28;20026;-83
2022/09/18 00:50:43;;;;;;;2.72;1.10;;;332.80;2329.60;;;;;;5013980;28;20054;-83
2022/09/18 00:53:09;;;;;;;2.33;1.00;;;308.10;2304.00;;;;;;5030184;28;20107;-84
2022/09/18 00:55:39;;;;;;;1.45;0.90;;;332.80;2329.60;;;;;;5015099;28;20357;-83
2022/09/18 00:58:06;;;;;;;1.98;0.90;;;332.80;2329.60;;;;;;5030464;28;20430;-82
2022/09/18 01:00:32;;;;;;;1.55;0.85;;;308.10;2304.00;;;;;;5029944;28;20022;-82
2022/09/18 01:03:00;;;;;;;2.13;1.10;;;307.20;2304.00;;;;;;5030357;28;20117;-83
2022/09/18 01:06:16;;;;;;;2.58;1.30;;;308.10;2304.00;;;;;;5014955;28;20113;-83
2022/09/18 01:09:04;;;;;;;2.20;1.00;;;332.80;2329.60;;;;;;5012686;28;20030;-83
2022/09/18 01:11:48;;;;;;;2.10;1.10;;;308.10;2304.00;;;;;;5029046;28;20026;-82
2022/09/18 01:14:32;;;;;;;1.60;0.90;;;308.10;2304.00;;;;;;5024366;28;20030;-84
2022/09/18 01:17:23;;;;;;;2.78;1.00;;;308.10;2304.00;;;;;;5015257;28;20038;-85
2022/09/18 01:20:13;;;;;;;1.65;0.95;;;308.00;2304.00;;;;;;5046587;28;20030;-84
2022/09/18 01:22:57;;;;;;;1.25;0.90;;;308.10;2304.00;;;;;;5014928;28;20530;-83
2022/09/18 01:25:59;;;;;;;3.35;1.05;;;308.00;2304.00;;;;;;5029911;28;20025;-83
2022/09/18 01:28:43;;;;;;;2.35;1.05;;;308.10;2304.00;;;;;;5014410;28;20034;-84
2022/09/18 01:31:59;;;;;;;1.25;0.98;;;308.10;2304.00;;;;;;5029867;28;20559;-84
2022/09/18 01:34:45;;;;;;;2.05;0.98;;;332.80;2329.60;;;;;;5027751;28;20042;-85
2022/09/18 01:37:31;;;;;;;2.17;1.10;;;308.10;2304.00;;;;;;5029829;28;20030;-83
2022/09/18 01:40:16;;;;;;;2.65;1.05;;;332.80;2329.60;;;;;;5029560;28;20091;-85
2022/09/18 01:42:44;;;;;;;1.73;0.90;;;332.80;2329.60;;;;;;5029331;28;20076;-84
2022/09/18 01:45:15;;;;;;;1.88;1.02;;;308.10;2304.00;;;;;;5029594;28;20030;-83
2022/09/18 01:47:53;;;;;;;2.15;1.10;;;332.80;2329.60;;;;;;5038546;28;20029;-84
2022/09/18 01:50:20;;;;;;;2.53;1.10;;;332.80;2329.60;;;;;;5032250;28;20389;-83
2022/09/18 01:53:01;;;;;;;1.77;1.00;;;332.80;2329.60;;;;;;5031948;28;20034;-84
2022/09/18 01:55:30;;;;;;;2.00;1.15;;;332.80;2329.60;;;;;;5031082;28;20029;-83
2022/09/18 01:58:05;;;;;;;2.50;1.00;;;332.90;2329.60;;;;;;5032249;28;20486;-83
2022/09/18 02:00:32;;;;;;;1.33;0.88;;;332.80;2329.60;;;;;;5066323;28;20029;-84
2022/09/18 02:03:23;;;;;;;1.80;0.95;;;332.80;2329.60;;;;;;5037886;28;20126;-82
2022/09/18 02:06:01;;;;;;;2.15;1.00;;;332.90;2329.60;;;;;;5031120;28;20386;-82
2022/09/18 02:08:32;;;;;;;2.45;1.05;;;332.80;2329.60;;;;;;5029321;28;20029;-85
2022/09/18 02:11:03;;;;;;;3.15;1.00;;;332.80;2329.60;;;;;;5065320;28;20482;-83
2022/09/18 02:13:38;;;;;;;2.78;1.38;;;332.80;2329.60;;;;;;5031083;28;20053;-83
2022/09/18 02:16:10;;;;;;;2.20;1.10;;;308.10;2304.00;;;;;;5032439;28;20387;-83
2022/09/18 02:18:39;;;;;;;;;;;332.90;2329.60;;;;;;5032908;28;20030;-83
2022/09/18 02:21:09;;;;;;;1.67;0.90;;;308.10;2304.00;;;;;;5050185;28;19913;-84
2022/09/18 02:23:37;;;;;;;1.65;0.90;;;332.80;2329.60;;;;;;5033390;28;20025;-84
2022/09/18 02:26:06;;;;;;;1.75;0.90;;;308.10;2304.00;;;;;;5034285;28;20037;-84
2022/09/18 02:28:33;;;;;;;1.63;1.00;;;332.80;2329.60;;;;;;5032421;28;20025;-83
2022/09/18 02:31:00;;;;;;;1.73;1.02;;;332.80;2329.60;;;;;;5031706;28;20080;-84
2022/09/18 02:33:33;;;;;;;2.05;1.00;;;332.90;2329.60;;;;;;5033954;28;20080;-83
2022/09/18 02:36:34;;;;;;;2.03;1.10;;;332.80;2329.60;;;;;;5032117;28;20030;-84
2022/09/18 02:39:15;;;;;;;2.28;1.10;;;332.80;2329.60;;;;;;5035930;28;20025;-84
2022/09/18 02:42:05;;;;;;;2.47;1.23;;;332.80;2329.60;;;;;;5031092;28;20057;-84
2022/09/18 02:44:49;;;;;;;2.38;1.00;;;332.80;2329.60;;;;;;5031746;28;20038;-84
2022/09/18 02:47:15;;;;;;;2.08;1.10;;;332.90;2329.60;;;;;;5027550;28;20061;-84
2022/09/18 02:50:11;;;;;;;2.05;1.00;;;332.90;2329.60;;;;;;5045236;28;20062;-85
2022/09/18 02:52:51;;;;;;;2.53;1.10;;;332.90;2329.60;;;;;;5013920;28;20053;-84
2022/09/18 02:55:23;;;;;;;2.00;1.00;;;332.90;2329.60;;;;;;5012498;28;20029;-84
2022/09/18 02:57:59;;;;;;;1.60;0.90;;;332.90;2329.60;;;;;;5018947;28;20029;-84
2022/09/18 03:00:28;;;;;;;2.08;1.00;;;332.90;2329.60;;;;;;5015392;28;20434;-84
2022/09/18 03:02:57;;;;;;;2.03;1.00;;;333.00;2329.60;;;;;;5014877;28;20026;-84
2022/09/18 03:05:24;;;;;;;2.25;1.00;;;333.00;2329.60;;;;;;5014913;28;20030;-84
2022/09/18 03:07:50;;;;;;;1.98;1.10;;;333.00;2329.60;;;;;;5017210;28;20427;-83
2022/09/18 03:10:16;;;;;;;2.85;1.00;;;333.10;2329.60;;;;;;5016171;28;20026;-84
2022/09/18 03:12:42;;;;;;;5.60;2.90;;;333.00;2329.60;;;;;;5015738;28;20083;-84
2022/09/18 03:15:10;;;;;;;1.98;1.00;;;333.10;2329.60;;;;;;5015967;28;20041;-84
2022/09/18 03:17:36;;;;;;;4.28;1.20;;;333.00;2329.60;;;;;;5017008;28;20069;-85
2022/09/18 03:20:03;;;;;;;2.53;1.08;;;333.00;2329.60;;;;;;5049153;28;20040;-84
2022/09/18 03:22:29;;;;;;;2.10;1.00;;;333.10;2329.60;;;;;;5048228;28;20062;-84
2022/09/18 03:24:55;;;;;;;1.75;1.02;;;333.20;2329.60;;;;;;5048486;28;20127;-84
2022/09/18 03:27:21;;;;;;;2.30;1.00;;;333.20;2329.60;;;;;;5048539;28;20025;-87
2022/09/18 03:29:47;;;;;;;2.42;1.10;;;333.20;2329.60;;;;;;5048847;28;20587;-84
2022/09/18 03:32:12;;;;;;;3.80;1.30;;;333.10;2329.60;;;;;;5050856;28;20151;-84
2022/09/18 03:34:38;;;;;;;2.50;1.10;;;333.10;2329.60;;;;;;5067610;28;20030;-85
2022/09/18 03:37:04;;;;;;;3.72;1.40;;;333.10;2329.60;;;;;;5024902;28;20111;-84
2022/09/18 03:39:30;;;;;;;1.63;1.00;;;333.10;2329.60;;;;;;5047311;28;20382;-84
2022/09/18 03:41:56;;;;;;;2.10;1.17;;;333.10;2329.60;;;;;;5049392;28;20368;-85
2022/09/18 03:44:21;;;;;;;1.38;1.00;;;333.10;2329.60;;;;;;5057999;28;20063;-83
2022/09/18 03:46:47;;;;;;;2.00;0.90;;;333.10;2329.60;;;;;;5075493;28;20025;-84
2022/09/18 03:49:13;;;;;;;3.10;1.20;;;333.10;2329.60;;;;;;5091884;28;20025;-85
2022/09/18 03:51:39;;;;;;;2.28;1.13;;;333.10;2329.60;;;;;;5058385;28;20024;-84
2022/09/18 03:54:05;;;;;;;2.58;1.10;;;333.00;2329.60;;;;;;5081068;28;20470;-84
2022/09/18 03:56:31;;;;;;;2.40;1.20;;;333.00;2329.60;;;;;;5039681;28;20127;-83
2022/09/18 03:58:56;;;;;;;2.50;1.27;;;333.00;2329.60;;;;;;5037027;28;20033;-83
2022/09/18 04:01:22;;;;;;;2.97;1.52;;;333.10;2329.60;;;;;;5036819;28;20029;-80
2022/09/18 04:03:48;;;;;;;2.60;1.13;;;332.90;2329.60;;;;;;5037937;28;20196;-82
2022/09/18 04:06:14;;;;;;;4.07;1.10;;;333.10;2329.60;;;;;;5043263;28;20032;-83
2022/09/18 04:08:40;;;;;;;3.08;1.25;;;333.10;2329.60;;;;;;5057138;28;20033;-84
2022/09/18 04:11:06;;;;;;;2.45;1.17;;;333.10;2329.60;;;;;;5056465;28;20024;-84
2022/09/18 04:13:33;;;;;;;2.80;1.17;;;333.10;2329.60;;;;;;5056874;28;20378;-83
2022/09/18 04:15:59;;;;;;;1.83;1.02;;;333.20;2329.60;;;;;;5090981;28;20046;-83
2022/09/18 04:18:24;;;;;;;2.55;1.23;;;333.20;2329.60;;;;;;5040437;28;20582;-84
2022/09/18 04:20:50;;;;;;;3.05;1.30;;;333.10;2329.60;;;;;;5037431;28;20120;-84
2022/09/18 04:23:17;;;;;;;2.67;1.45;;;333.20;2329.60;;;;;;5035832;28;20029;-82
2022/09/18 04:25:43;;;;;;;2.75;1.27;;;333.20;2329.60;;;;;;5037294;28;20029;-84
2022/09/18 04:28:10;;;;;;;2.60;1.20;;;333.20;2329.60;;;;;;5036535;28;20021;-83
2022/09/18 04:30:37;;;;;;;2.28;1.20;;;333.10;2329.60;;;;;;5037525;28;20021;-84
2022/09/18 04:33:03;;;;;;;2.15;1.15;;;333.10;2329.60;;;;;;5037549;28;20024;-85
2022/09/18 04:35:29;;;;;;;1.92;1.13;;;333.10;2329.60;;;;;;5036117;28;20040;-84
2022/09/18 04:37:54;;;;;;;1.83;1.10;;;333.20;2329.60;;;;;;5037586;28;20037;-84
2022/09/18 04:40:20;;;;;;;3.90;1.38;;;333.10;2329.60;;;;;;5054300;28;20051;-84
2022/09/18 04:42:46;;;;;;;2.22;1.20;;;333.10;2329.60;;;;;;5036960;28;20049;-83
2022/09/18 04:45:12;;;;;;;5.63;1.42;;;333.10;2329.60;;;;;;5037340;28;20520;-84
2022/09/18 04:47:39;;;;;;;2.42;1.40;;;333.10;2329.60;;;;;;5070671;28;20032;-85
2022/09/18 04:50:07;;;;;;;2.30;1.40;;;333.10;2329.60;;;;;;5037044;28;20047;-84
2022/09/18 04:52:34;;;;;;;2.70;1.40;;;333.20;2329.60;;;;;;5037219;28;20386;-83
2022/09/18 04:55:00;;;;;;;2.35;1.17;;;333.20;2329.60;;;;;;5036335;28;20183;-84
2022/09/18 04:57:25;;;;;;;3.17;1.45;;;333.20;2329.60;;;;;;5036867;28;20124;-83
2022/09/18 04:59:52;;;;;;;2.15;1.15;;;333.40;2329.60;;;;;;5030180;28;20029;-82
2022/09/18 05:02:18;;;;;;;3.22;1.33;;;333.40;2329.60;;;;;;5033585;28;20029;-85
2022/09/18 05:04:44;;;;;;;6.25;3.40;;;333.30;2329.60;;;;;;5032527;28;20026;-84
2022/09/18 05:07:10;;;;;;;8.60;6.40;;;333.30;2329.60;;;;;;5033514;28;20116;-84
2022/09/18 05:09:36;;;;;;;3.83;2.20;;;333.20;2329.60;;;;;;5033547;28;20025;-84
2022/09/18 05:12:02;;;;;;;4.55;2.47;;;333.30;2329.60;;;;;;5033313;28;20021;-83
2022/09/18 05:14:27;;;;;;;3.92;2.85;;;333.30;2329.60;;;;;;5033471;28;20030;-84
2022/09/18 05:16:55;;;;;;;5.38;2.33;;;333.40;2329.60;;;;;;5033289;28;20487;-85
2022/09/18 05:19:21;;;;;;;4.03;2.22;;;333.40;2329.60;;;;;;5036864;28;21374;-84
2022/09/18 05:21:50;;;;;;;3.40;2.03;;;333.40;2329.60;;;;;;5036623;28;20524;-84
2022/09/18 05:24:17;;;;;;;3.97;1.73;;;333.40;2329.60;;;;;;5035450;28;20021;-83
2022/09/18 05:26:47;;;;;;;2.58;1.42;;;333.40;2329.60;;;;;;5038804;28;20032;-84
2022/09/18 05:29:13;;;;;;;3.25;1.70;;;333.40;2329.60;;;;;;5035866;28;20055;-83
2022/09/18 05:31:40;;;;;;;3.72;1.40;;;333.50;2329.60;;;;;;5035513;28;20478;-83
2022/09/18 05:34:06;;;;;;;2.60;1.30;;;333.50;2329.60;;;;;;5068935;28;20021;-83
2022/09/18 05:36:32;;;;;;;3.47;1.88;;;333.50;2329.60;;;;;;5035683;28;20029;-82
2022/09/18 05:38:58;;;;;;;3.10;1.67;;;333.50;2329.60;;;;;;5033184;28;20029;-82
2022/09/18 05:41:23;;;;;;;2.80;1.80;;;333.40;2329.60;;;;;;5031938;28;20119;-83
2022/09/18 05:43:49;;;;;;;2.90;1.80;;;333.40;2329.60;;;;;;5032571;28;20053;-84
2022/09/18 05:46:15;;;;;;;2.40;1.38;;;333.40;2329.60;;;;;;5032960;28;20069;-83
2022/09/18 05:48:41;;;;;;;3.53;2.00;;;333.40;2329.60;;;;;;5056226;28;20006;-83
2022/09/18 05:51:07;;;;;;;2.53;1.52;;;333.40;2329.60;;;;;;5057926;28;20020;-81
2022/09/18 05:53:34;;;;;;;3.58;2.17;;;333.40;2329.60;;;;;;5065507;28;20017;-83
2022/09/18 05:55:59;;;;;;;2.97;1.67;;;333.40;2329.60;;;;;;5071744;28;20108;-83
2022/09/18 05:58:25;;;;;;;3.05;1.70;;;333.40;2329.60;;;;;;5075357;28;20473;-80
2022/09/18 06:00:55;;;;;;;4.53;1.75;;;333.40;2329.60;;;;;;5091376;28;20029;-83
2022/09/18 06:03:20;;;;;;;3.13;1.83;;;333.50;2329.60;;;;;;5087186;28;20039;-82
2022/09/18 06:05:53;;;;;;;3.78;2.15;;;333.50;2329.60;;;;;;5038334;28;20033;-82
2022/09/18 06:08:19;;;;;;;3.50;1.70;;;333.60;2329.60;;;;;;5038741;28;20032;-83
2022/09/18 06:10:45;;;;;;;4.20;1.73;;;333.60;2329.60;;;;;;5038241;28;20532;-82
2022/09/18 06:13:14;;;;;;;3.28;1.75;;;333.60;2329.60;;;;;;5057412;28;20029;-81
2022/09/18 06:15:44;;;;;;;3.03;1.65;;;333.60;2329.60;;;;;;5054799;28;20025;-83
2022/09/18 06:18:13;;;;;;;3.45;1.70;;;333.60;2329.60;;;;;;5035936;28;20021;-84
2022/09/18 06:20:42;;;;;;;3.38;1.50;;;333.60;2329.60;;;;;;5035838;28;20172;-83
2022/09/18 06:23:08;;;;;;;5.88;3.22;;;333.60;2329.60;;;;;;5035330;28;20028;-83
2022/09/18 06:25:35;;;;;;;3.90;2.83;;;333.70;2329.60;;;;;;5052375;28;20044;-83
2022/09/18 06:28:01;;;;;;;4.35;2.17;;;333.60;2329.60;;;;;;5034581;28;20092;-82
2022/09/18 06:30:30;;;;;;;3.35;2.00;;;333.50;2329.60;;;;;;5035791;28;20028;-82
2022/09/18 06:33:04;;;;;;;3.70;2.00;;;333.60;2329.60;;;;;;5035172;28;20051;-81
2022/09/18 06:35:31;;;;;;;3.70;1.90;;;333.60;2329.60;;;;;;5043697;28;20493;-84
2022/09/18 06:38:01;;;;;;;3.88;2.20;;;333.70;2329.60;;;;;;5076259;28;20051;-82
2022/09/18 06:40:28;;;;;;;4.15;2.10;;;333.60;2329.60;;;;;;5055519;28;20025;-83
2022/09/18 06:42:55;;;;;;;3.60;2.20;;;358.40;2329.60;;;;;;5055596;28;20071;-82
2022/09/18 06:45:22;;;;;;;5.10;2.30;;;358.50;2329.60;;;;;;5056508;28;20021;-82
2022/09/18 06:47:47;;;;;;;5.15;2.65;;;358.50;2329.60;;;;;;5056329;28;20381;-83
2022/09/18 06:50:13;;;;;;;5.15;2.50;;;358.60;2329.60;;;;;;5036572;28;20029;-82
2022/09/18 06:52:39;;;;;;;3.28;1.83;;;358.70;2329.60;;;;;;5033137;28;20547;-81
2022/09/18 06:55:05;;;;;;;5.50;2.30;;;358.80;2329.60;;;;;;5034888;28;20033;-81
2022/09/18 06:57:31;;;;;;;3.83;2.40;;;358.80;2329.60;;;;;;5035000;28;20410;-83
2022/09/18 06:59:57;;;;;;;5.93;2.22;;;358.90;2329.60;;;;;;5036258;28;20026;-82
2022/09/18 07:02:22;;;;;;;3.67;2.10;;;359.00;2329.60;;;;;;5035728;28;20151;-82
2022/09/18 07:04:48;;;;;;;3.28;1.70;;;359.10;2329.60;;;;;;5035901;28;20025;-83
2022/09/18 07:07:14;;;;;;;2.83;1.70;;;359.20;2329.60;;;;;;5027126;28;20030;-81
2022/09/18 07:09:40;;;;;;;3.35;1.70;;;359.10;2329.60;;;;;;5037088;28;20033;-84
2022/09/18 07:12:05;;;;;;;3.70;2.03;;;359.10;2329.60;;;;;;5038184;28;20040;-82
2022/09/18 07:14:31;;;;;;;3.35;2.00;;;359.10;2329.60;;;;;;5035596;28;20056;-83
2022/09/18 07:16:57;;;;;;;3.63;2.03;;;359.10;2329.60;;;;;;5034861;28;20471;-82
2022/09/18 07:19:23;;;;;;;4.63;2.35;;;359.10;2329.60;;;;;;5035336;28;20040;-82
2022/09/18 07:21:51;;;;;;;3.42;1.98;;;359.10;2329.60;;;;;;5068451;28;20017;-82
2022/09/18 07:24:17;;;;;;;3.42;2.10;;;359.20;2329.60;;;;;;5034598;28;20029;-82
2022/09/18 07:26:42;;;;;;;3.92;2.10;;;359.30;2329.60;;;;;;5035008;28;20083;-81
2022/09/18 07:29:08;;;;;;;5.82;2.78;;;359.30;2329.60;;;;;;5035354;28;20026;-82
2022/09/18 07:31:34;;;;;;;6.28;1.90;;;359.30;2329.60;;;;;;5034230;28;20026;-83
2022/09/18 07:34:00;;;;;;;4.60;2.08;;;384.00;2329.60;;;;;;5035626;28;20030;-82
2022/09/18 07:36:26;;;;;;;3.78;1.77;;;384.10;2329.60;;;;;;5034668;28;20040;-82
2022/09/18 07:38:52;;;;;;;3.22;1.80;;;384.10;2329.60;;;;;;5034569;28;20116;-81
2022/09/18 07:41:18;;;;;;;3.47;1.60;;;384.20;2329.60;;;;;;5041392;28;20120;-81
2022/09/18 07:43:47;;;;;;;4.28;1.92;;;384.30;2329.60;;;;;;5053938;28;20609;-79
2022/09/18 07:46:13;;;;;;;5.30;2.00;;;384.40;2329.60;;;;;;5052898;28;20040;-79
2022/09/18 07:48:39;;;;;;;4.75;1.98;;;384.40;2329.60;;;;;;5053976;28;20025;-80
2022/09/18 07:51:05;;;;;;;7.45;3.03;;;384.30;2329.60;;;;;;5054963;28;20092;-81
2022/09/18 07:53:31;;;;;;;4.97;2.50;;;384.50;2329.60;;;;;;5054814;28;20359;-80
2022/09/18 07:55:57;;;;;;;5.18;1.80;;;384.70;2329.60;;;;;;5054927;28;20119;-80
2022/09/18 07:58:23;;;;;;;5.00;1.80;;;384.60;2329.60;;;;;;5055960;28;20482;-80
2022/09/18 08:00:49;;;;;;;4.43;2.03;;;384.70;2329.60;;;;;;5054760;28;20441;-79
2022/09/18 08:03:17;;;;;;;5.50;1.48;;;384.90;2329.60;;;;;;5054762;28;20032;-80
2022/09/18 08:05:43;;;;;;;4.50;1.55;;;409.60;2355.20;;;;;;5054459;28;20059;-81
2022/09/18 08:08:11;;;;;;;3.25;1.65;;;384.90;2329.60;;;;;;5054513;28;20025;-81
2022/09/18 08:10:39;;;;;;;3.65;1.65;;;384.90;2329.60;;;;;;5088140;28;20150;-79
2022/09/18 08:13:05;;;;;;;4.85;2.15;;;384.80;2329.60;;;;;;5054178;28;20028;-82
2022/09/18 08:15:32;;;;;;;2.72;1.42;;;384.80;2329.60;;;;;;5055608;28;20033;-80
2022/09/18 08:17:59;;;;;;;3.10;1.40;;;384.80;2329.60;;;;;;5055731;28;20029;-80
2022/09/18 08:20:25;;;;;;;4.50;1.73;;;384.60;2329.60;;;;;;5054158;28;20025;-78
2022/09/18 08:22:51;;;;;;;6.32;1.83;;;384.60;2329.60;;;;;;5054224;28;20025;-79
2022/09/18 08:25:17;;;;;;;4.43;2.05;;;384.60;2329.60;;;;;;5054317;28;20036;-80
2022/09/18 08:27:43;;;;;;;5.35;1.90;;;409.70;2355.20;;;;;;5053988;28;20351;-79
2022/09/18 08:30:12;;;;;;;4.50;2.05;;;384.70;2329.60;;;;;;5056070;28;20036;-80
2022/09/18 08:32:38;;;;;;;5.00;1.88;;;384.60;2329.60;;;;;;5055397;28;20025;-80
2022/09/18 08:35:05;;;;;;;3.67;1.70;;;384.70;2329.60;;;;;;5055224;28;20085;-80
2022/09/18 08:37:32;;;;;;;3.85;1.80;;;384.80;2329.60;;;;;;5054177;28;20432;-80
2022/09/18 08:39:58;;;;;;;4.20;1.88;;;384.70;2329.60;;;;;;5054086;28;20032;-80
2022/09/18 08:42:56;;;;;;;6.53;2.05;;;384.80;2329.60;;;;;;5052549;28;20218;-80
2022/09/18 08:46:03;;;;;;;5.03;2.40;;;384.90;2329.60;;;;;;5026598;28;20128;-80
2022/09/18 08:49:06;;;;;;;4.72;2.10;;;384.90;2329.60;;;;;;5014237;28;20151;-80
2022/09/18 08:51:45;;;;;;;4.15;1.80;;;384.90;2329.60;;;;;;5016175;28;20041;-80
2022/09/18 08:54:26;;;;;;;7.05;1.90;;;384.90;2329.60;;;;;;5033589;28;20398;-80
2022/09/18 08:56:54;;;;;;;4.57;2.15;;;409.60;2355.20;;;;;;5054781;28;20025;-81
2022/09/18 08:59:44;;;;;;;4.75;1.98;;;409.70;2355.20;;;;;;5036648;28;20067;-80
2022/09/18 09:02:19;;;;;;;5.78;2.95;;;;;;;;;;5036619;28;20021;-80
2022/09/18 09:04:45;;;;;;;3.80;2.10;;;;;;;;;;5053643;28;20033;-82
2022/09/18 09:07:29;;;;;;;4.35;1.77;;;409.90;2355.20;;;;;;5053565;28;20151;-79
2022/09/18 09:10:06;;;;;;;4.35;2.22;;;409.70;2355.20;;;;;;5053144;28;20033;-80
2022/09/18 09:12:55;;;;;;;5.03;1.83;;;409.70;2355.20;;;;;;5036868;28;20032;-79
2022/09/18 09:15:27;;;;;;;6.25;2.00;;;409.70;2355.20;;;;;;5069539;28;20033;-79
2022/09/18 09:18:21;;;;;;;6.47;3.55;;;409.80;2355.20;;;;;;5053212;28;20025;-79
2022/09/18 09:20:51;;;;;;;5.07;3.28;;;409.80;2355.20;;;;;;5036637;28;20382;-80
2022/09/18 09:23:41;;;;;;;6.13;2.85;;;409.70;2355.20;;;;;;5036281;28;20032;-80
2022/09/18 09:26:17;;;;;;;4.35;2.20;;;409.70;2355.20;;;;;;5036245;28;20030;-81
2022/09/18 09:29:11;;;;;;;3.53;2.00;;;409.70;2355.20;;;;;;5052873;28;20393;-80
2022/09/18 09:31:44;;;;;;;5.07;2.00;;;384.90;2329.60;;;;;;5058989;28;20048;-80
2022/09/18 09:34:20;;;;;;;3.30;1.73;;;409.90;2355.20;;;;;;5056875;28;20100;-83
2022/09/18 09:36:53;;;;;;;4.07;1.88;;;410.00;2355.20;;;;;;5043275;28;20032;-84
2022/09/18 09:39:38;;;;;;;6.18;2.50;;;410.00;2355.20;;;;;;5041225;28;20024;-84
2022/09/18 09:42:10;;;;;;;5.88;2.60;;;410.00;2355.20;;;;;;5055755;28;20032;-84
2022/09/18 09:44:57;;;;;;;3.17;1.75;;;410.00;2355.20;;;;;;5043725;28;20024;-85
2022/09/18 09:47:47;;;;;;;3.50;1.85;;;410.10;2355.20;;;;;;5038318;28;20102;-84
2022/09/18 09:50:25;;;;;;;4.15;2.15;;;410.20;2355.20;;;;;;5035271;28;20106;-84
2022/09/18 09:52:57;;;;;;;2.60;1.40;;;410.20;2355.20;;;;;;5035187;28;20020;-83
2022/09/18 09:55:39;;;;;;;4.50;1.80;;;410.10;2355.20;;;;;;5053540;28;20029;-82
2022/09/18 09:58:05;;;;;;;;;;;410.00;2355.20;;;;;;5037310;28;20563;-83
2022/09/18 10:00:46;;;;;;;4.95;1.83;;;410.00;2355.20;;;;;;5069992;28;20011;-83
2022/09/18 10:03:21;;;;;;;5.40;1.95;;;410.00;2355.20;;;;;;5036291;28;20083;-82
2022/09/18 10:06:11;;;;;;;3.83;1.98;;;410.30;2355.20;;;;;;5036498;28;20031;-84
2022/09/18 10:08:43;;;;;;;4.57;1.85;;;;;;;;;;5036389;28;20033;-83
2022/09/18 10:11:11;;;;;;;4.47;2.38;;;435.30;2355.20;;;;;;5035724;28;20060;-84
2022/09/18 10:14:12;;;;;;;5.50;1.73;;;435.30;2355.20;;;;;;5036892;28;20025;-87
2022/09/18 10:16:45;;;;;;;4.88;1.80;;;435.30;2355.20;;;;;;5029095;28;20040;-85
2022/09/18 10:19:15;;;;;;;4.07;2.00;;;435.50;2355.20;;;;;;5036308;28;20025;-86
2022/09/18 10:21:41;;;;;;;4.63;2.03;;;435.60;2355.20;;;;;;5036278;28;20470;-86
2022/09/18 10:24:29;;;;;;;3.22;1.58;;;435.70;2355.20;;;;;;5036369;28;20031;-87
2022/09/18 10:27:22;;;;;;;3.28;1.50;;;435.80;2355.20;;;;;;5036362;28;20374;-87
2022/09/18 10:29:48;;;;;;;4.03;1.60;;;436.10;2355.20;;;;;;5051799;28;20033;-87
2022/09/18 10:32:32;;;;;;;6.22;1.98;;;460.80;2380.80;;;;;;5036354;28;20036;-86
2022/09/18 10:34:58;;;;;;;3.88;1.92;;;461.10;2380.80;;;;;;5036159;28;20032;-85
2022/09/18 10:37:27;;;;;;;4.85;1.98;;;;;;;;;;5035949;28;20504;-85
2022/09/18 10:39:56;;;;;;;3.35;1.58;;;461.00;2380.80;;;;;;5035837;28;20029;-86
2022/09/18 10:45:40;;;;;;;4.03;1.88;;;;;;;;;;5034182;28;20092;-86
2022/09/18 10:48:06;;;;;;;4.30;1.77;;;;;;;;;;5032568;28;20041;-87
2022/09/18 10:50:33;;;;;;;6.57;2.80;;;;;;;;;;5032710;28;20132;-82
2022/09/18 10:53:18;;;;;;;4.35;1.90;;;;;;;;;;5032783;28;20032;-88
2022/09/18 10:55:49;;;;;;;4.60;2.33;;;460.90;2380.80;;;;;;5032851;28;20506;-87
2022/09/18 10:58:25;;;;;;;7.03;2.00;;;436.10;2355.20;;;;;;5032800;28;20022;-86
2022/09/18 11:01:01;;;;;;;4.40;1.90;;;436.10;2355.20;;;;;;5032801;28;20517;-87
2022/09/18 11:03:39;;;;;;;5.78;2.35;;;;;;;;;;5033210;28;20356;-85
2022/09/18 11:06:07;;;;;;;15.38;3.50;;;;;;;;;;5032044;28;20029;-85
2022/09/18 11:08:41;;;;;;;4.50;1.60;;;461.00;2278.40;;;;;;5032861;28;20033;-86
2022/09/18 11:11:34;;;;;;;5.38;1.85;;;460.80;2278.40;;;;;;5032464;28;20036;-87
2022/09/18 11:14:41;;;;;;;4.07;1.83;;;436.00;2227.20;;;;;;5032678;28;20030;-86
2022/09/18 11:17:53;;;;;;;5.15;1.95;;;461.70;2201.60;;;;;;5031638;28;20068;-86
2022/09/18 11:27:43;;;;;;;3.85;1.40;;;487.10;2176.00;;;;;;4937376;29;20035;-87
2022/09/18 11:30:23;;;;;;;10.38;2.10;;;;;;;;;;4937837;29;20027;-87
2022/09/18 11:32:57;;;;;;;5.35;2.22;;;;;;;;;;4991458;28;20037;-86
2022/09/18 11:35:26;;;;;;;4.82;2.00;;;486.40;2176.00;;;;;;4998956;28;20029;-88
2022/09/18 11:37:59;;;;;;;3.17;1.40;;;486.40;2227.20;;;;;;4998646;28;20082;-85
2022/09/18 11:40:28;;;;;;;3.30;1.52;;;486.40;2176.00;;;;;;4998524;28;20038;-86
2022/09/18 11:42:54;;;;;;;2.40;1.60;;;486.70;2124.80;;;;;;4998971;28;20538;-85
2022/09/18 11:45:26;;;;;;;4.68;1.60;;;461.70;2124.80;;;;;;5022530;28;20063;-86
2022/09/18 11:48:31;;;;;;;3.22;1.30;;;461.60;2176.00;;;;;;5068769;28;20028;-85
2022/09/18 11:51:02;;;;;;;3.40;1.80;;;461.50;2150.40;;;;;;5034395;28;20143;-89
2022/09/18 11:53:36;;;;;;;9.93;2.35;;;461.60;2176.00;;;;;;5035948;28;20116;-86
2022/09/18 11:56:06;;;;;;;10.73;3.50;;;486.60;2099.20;;;;;;5035550;28;20577;-87
2022/09/18 11:58:44;;;;;;;4.75;2.15;;;;;;;;;;5068049;28;20109;-83
2022/09/18 12:01:20;;;;;;;3.53;1.63;;;;;;;;;;5051236;28;20029;-84
2022/09/18 12:03:53;;;;;;;5.03;2.30;;;;;;;;;;5034921;28;20029;-82
2022/09/18 12:06:19;;;;;;;4.63;2.03;;;;;;;;;;5033816;28;20025;-81
2022/09/18 12:08:45;;;;;;;3.92;1.23;;;;;;;;;;5033246;28;20029;-82
2022/09/18 12:11:34;;;;;;;5.47;2.00;;;;;;;;;;5035415;28;20029;-81
2022/09/18 12:14:22;;;;;;;4.50;1.60;;;;;;;;;;5033817;28;20808;-83
2022/09/18 12:17:23;;;;;;;4.60;1.50;;;512.30;2022.40;;;;;;5034067;28;20061;-82
2022/09/18 12:19:58;;;;;;;3.25;1.63;;;512.20;1996.80;;;;;;5023314;28;20045;-85
2022/09/18 12:22:52;;;;;;;6.90;2.60;;;487.20;2022.40;;;;;;5034889;28;20029;-85
2022/09/18 12:25:18;;;;;;;4.05;2.17;;;486.90;2073.60;;;;;;5035045;28;20098;-85
2022/09/18 12:27:51;;;;;;;4.97;2.10;;;512.30;2022.40;;;;;;5034619;28;20022;-84
2022/09/18 12:30:19;;;;;;;4.35;1.70;;;537.60;2048.00;;;;;;5034569;28;20033;-85
2022/09/18 12:33:06;;;;;;;5.18;2.25;;;538.20;2022.40;;;;;;5034320;28;20099;-85
2022/09/18 12:35:35;;;;;;;3.30;1.98;;;563.50;2048.00;;;;;;5034497;28;20029;-83
2022/09/18 12:38:06;;;;;;;3.17;1.65;;;563.90;1894.40;;;;;;5034426;28;20048;-83
2022/09/18 12:41:09;;;;;;;2.55;1.35;;;564.00;1894.40;;;;;;5034185;28;20163;-85
2022/09/18 12:43:43;;;;;;;3.33;1.50;;;588.80;1945.60;;;;;;5033516;28;20479;-84
2022/09/18 12:46:19;;;;;;;3.28;1.45;;;589.00;1843.20;;;;;;5050129;28;20479;-84
2022/09/18 12:49:05;;;;;;;3.83;1.90;;;589.10;1843.20;;;;;;5067011;28;20056;-85
2022/09/18 12:52:02;;;;;;;3.35;1.52;;;589.10;1792.00;;;;;;5067365;28;20312;-85
2022/09/18 12:54:36;;;;;;;2.78;1.50;;;563.60;1868.80;;;;;;5033121;28;20129;-85
2022/09/18 12:57:20;;;;;;;2.97;1.48;;;538.40;1894.40;;;;;;5067561;28;20029;-84
2022/09/18 13:00:11;;;;;;;3.33;1.75;;;563.60;1868.80;;;;;;5034112;28;20037;-85
2022/09/18 13:02:55;;;;;;;1.85;1.08;;;;;;;;;;5034252;28;20036;-84